sensor_id;sensor_type;location;lat;lon;timestamp;pressure;altitude;pressure_sealevel;temperature;humidity
61573;BME280;47465;43.094;12.434;2023-02-28T00:00:10;98810.56;;;4.36;90.13
61573;BME280;47465;43.094;12.434;2023-02-28T00:02:36;98798.28;;;4.35;90.58
61573;BME280;47465;43.094;12.434;2023-02-28T00:05:03;98779.00;;;4.23;90.34
61573;BME280;47465;43.094;12.434;2023-02-28T00:07:30;98797.41;;;4.28;90.17
61573;BME280;47465;43.094;12.434;2023-02-28T00:09:56;98809.69;;;4.37;89.56
61573;BME280;47465;43.094;12.434;2023-02-28T00:12:22;98793.91;;;4.23;90.13
61573;BME280;47465;43.094;12.434;2023-02-28T00:14:48;98793.03;;;4.35;90.05
61573;BME280;47465;43.094;12.434;2023-02-28T00:17:14;98792.16;;;4.29;89.58
61573;BME280;47465;43.094;12.434;2023-02-28T00:19:40;98793.91;;;4.23;90.08
61573;BME280;47465;43.094;12.434;2023-02-28T00:22:06;98798.28;;;4.16;90.20
61573;BME280;47465;43.094;12.434;2023-02-28T00:24:33;98795.69;;;4.19;90.32
61573;BME280;47465;43.094;12.434;2023-02-28T00:26:59;98787.78;;;4.19;90.18
61573;BME280;47465;43.094;12.434;2023-02-28T00:29:25;98803.56;;;4.30;90.08
61573;BME280;47465;43.094;12.434;2023-02-28T00:31:50;98796.53;;;4.20;90.29
61573;BME280;47465;43.094;12.434;2023-02-28T00:34:16;98791.28;;;4.15;90.23
61573;BME280;47465;43.094;12.434;2023-02-28T00:36:42;98815.84;;;4.22;90.45
61573;BME280;47465;43.094;12.434;2023-02-28T00:39:10;98813.22;;;4.23;89.99
61573;BME280;47465;43.094;12.434;2023-02-28T00:41:38;98808.84;;;4.21;90.55
61573;BME280;47465;43.094;12.434;2023-02-28T00:44:05;98807.06;;;4.18;90.69
61573;BME280;47465;43.094;12.434;2023-02-28T00:46:31;98799.19;;;4.14;90.50
61573;BME280;47465;43.094;12.434;2023-02-28T00:48:56;98793.94;;;4.10;90.35
61573;BME280;47465;43.094;12.434;2023-02-28T00:51:22;98788.66;;;4.07;90.72
61573;BME280;47465;43.094;12.434;2023-02-28T00:53:48;98812.34;;;4.18;91.09
61573;BME280;47465;43.094;12.434;2023-02-28T00:56:14;98815.00;;;4.17;91.09
61573;BME280;47465;43.094;12.434;2023-02-28T00:58:41;98794.81;;;4.08;91.16
61573;BME280;47465;43.094;12.434;2023-02-28T01:01:07;98777.28;;;4.02;90.31
61573;BME280;47465;43.094;12.434;2023-02-28T01:03:33;98784.25;;;4.09;90.43
61573;BME280;47465;43.094;12.434;2023-02-28T01:05:59;98801.84;;;4.12;91.18
61573;BME280;47465;43.094;12.434;2023-02-28T01:08:25;98791.31;;;4.10;90.98
61573;BME280;47465;43.094;12.434;2023-02-28T01:10:51;98804.44;;;4.09;91.25
61573;BME280;47465;43.094;12.434;2023-02-28T01:13:17;98787.81;;;4.04;90.98
61573;BME280;47465;43.094;12.434;2023-02-28T01:15:48;98807.94;;;4.16;90.52
61573;BME280;47465;43.094;12.434;2023-02-28T01:18:15;98786.03;;;4.06;91.20
61573;BME280;47465;43.094;12.434;2023-02-28T01:20:41;98805.34;;;4.13;90.95
61573;BME280;47465;43.094;12.434;2023-02-28T01:23:07;98805.31;;;4.11;91.35
61573;BME280;47465;43.094;12.434;2023-02-28T01:25:34;98779.91;;;3.96;91.45
61573;BME280;47465;43.094;12.434;2023-02-28T01:28:00;98790.41;;;4.11;90.94
61573;BME280;47465;43.094;12.434;2023-02-28T01:30:26;98795.69;;;4.08;91.05
61573;BME280;47465;43.094;12.434;2023-02-28T01:32:53;98772.00;;;4.02;91.17
61573;BME280;47465;43.094;12.434;2023-02-28T01:35:19;98777.28;;;4.10;90.51
61573;BME280;47465;43.094;12.434;2023-02-28T01:37:45;98774.63;;;4.01;91.57
61573;BME280;47465;43.094;12.434;2023-02-28T01:40:12;98768.50;;;4.08;90.70
61573;BME280;47465;43.094;12.434;2023-02-28T01:42:38;98752.72;;;4.00;90.44
61573;BME280;47465;43.094;12.434;2023-02-28T01:45:18;98753.59;;;4.08;89.91
61573;BME280;47465;43.094;12.434;2023-02-28T01:47:45;98781.63;;;4.14;90.48
61573;BME280;47465;43.094;12.434;2023-02-28T01:50:15;98773.72;;;4.20;89.76
61573;BME280;47465;43.094;12.434;2023-02-28T01:52:43;98765.84;;;4.11;89.74
61573;BME280;47465;43.094;12.434;2023-02-28T01:55:11;98757.09;;;4.06;90.19
61573;BME280;47465;43.094;12.434;2023-02-28T01:57:40;98768.50;;;4.13;90.56
61573;BME280;47465;43.094;12.434;2023-02-28T02:00:10;98759.72;;;4.07;90.02
61573;BME280;47465;43.094;12.434;2023-02-28T02:02:39;98777.28;;;4.15;90.51
61573;BME280;47465;43.094;12.434;2023-02-28T02:05:07;98775.50;;;4.10;90.98
61573;BME280;47465;43.094;12.434;2023-02-28T02:07:37;98771.13;;;4.13;90.19
61573;BME280;47465;43.094;12.434;2023-02-28T02:10:10;98764.13;;;4.10;90.32
61573;BME280;47465;43.094;12.434;2023-02-28T02:12:47;98762.34;;;4.07;90.95
61573;BME280;47465;43.094;12.434;2023-02-28T02:15:24;98775.50;;;4.14;91.06
61573;BME280;47465;43.094;12.434;2023-02-28T02:17:53;98759.72;;;4.00;92.12
61573;BME280;47465;43.094;12.434;2023-02-28T02:20:37;98752.69;;;3.99;91.62
61573;BME280;47465;43.094;12.434;2023-02-28T02:23:25;98749.19;;;4.03;91.30
61573;BME280;47465;43.094;12.434;2023-02-28T02:25:54;98766.75;;;4.15;91.30
61573;BME280;47465;43.094;12.434;2023-02-28T02:31:35;98761.47;;;4.13;91.57
61573;BME280;47465;43.094;12.434;2023-02-28T02:34:26;98754.44;;;4.15;91.88
61573;BME280;47465;43.094;12.434;2023-02-28T02:37:01;98744.81;;;4.08;91.58
61573;BME280;47465;43.094;12.434;2023-02-28T02:39:38;98751.84;;;4.12;92.10
61573;BME280;47465;43.094;12.434;2023-02-28T02:42:13;98747.44;;;4.11;91.81
61573;BME280;47465;43.094;12.434;2023-02-28T02:44:44;98762.34;;;4.17;91.67
61573;BME280;47465;43.094;12.434;2023-02-28T02:47:15;98740.41;;;4.16;91.54
61573;BME280;47465;43.094;12.434;2023-02-28T02:49:44;98763.22;;;4.23;91.41
61573;BME280;47465;43.094;12.434;2023-02-28T02:52:14;98751.81;;;4.17;91.36
61573;BME280;47465;43.094;12.434;2023-02-28T02:54:44;98751.81;;;4.14;91.88
61573;BME280;47465;43.094;12.434;2023-02-28T02:57:14;98746.56;;;4.12;91.50
61573;BME280;47465;43.094;12.434;2023-02-28T02:59:43;98730.78;;;4.03;91.40
61573;BME280;47465;43.094;12.434;2023-02-28T03:02:12;98724.63;;;4.11;90.87
61573;BME280;47465;43.094;12.434;2023-02-28T03:04:42;98738.63;;;4.18;91.03
61573;BME280;47465;43.094;12.434;2023-02-28T03:07:09;98748.31;;;4.19;90.93
61573;BME280;47465;43.094;12.434;2023-02-28T03:09:35;98744.81;;;4.19;90.92
61573;BME280;47465;43.094;12.434;2023-02-28T03:12:02;98727.22;;;4.16;90.54
61573;BME280;47465;43.094;12.434;2023-02-28T03:14:39;98753.56;;;4.24;91.32
61573;BME280;47465;43.094;12.434;2023-02-28T03:17:27;98747.41;;;4.25;91.13
61573;BME280;47465;43.094;12.434;2023-02-28T03:20:03;98741.28;;;4.15;91.23
61573;BME280;47465;43.094;12.434;2023-02-28T03:22:56;98749.19;;;4.15;90.86
61573;BME280;47465;43.094;12.434;2023-02-28T03:25:34;98743.06;;;4.15;91.32
61573;BME280;47465;43.094;12.434;2023-02-28T03:28:09;98759.69;;;4.24;90.84
61573;BME280;47465;43.094;12.434;2023-02-28T03:30:44;98756.19;;;4.28;91.21
61573;BME280;47465;43.094;12.434;2023-02-28T03:33:13;98736.91;;;4.17;90.92
61573;BME280;47465;43.094;12.434;2023-02-28T03:35:42;98763.19;;;4.25;91.37
61573;BME280;47465;43.094;12.434;2023-02-28T03:38:15;98758.81;;;4.30;91.08
61573;BME280;47465;43.094;12.434;2023-02-28T03:40:53;98753.53;;;4.28;91.00
61573;BME280;47465;43.094;12.434;2023-02-28T03:43:24;98732.53;;;4.13;91.03
61573;BME280;47465;43.094;12.434;2023-02-28T03:45:52;98722.88;;;4.12;91.58
61573;BME280;47465;43.094;12.434;2023-02-28T03:48:23;98732.50;;;4.19;91.00
61573;BME280;47465;43.094;12.434;2023-02-28T03:50:56;98717.59;;;4.21;90.62
61573;BME280;47465;43.094;12.434;2023-02-28T03:53:35;98732.53;;;4.13;91.74
61573;BME280;47465;43.094;12.434;2023-02-28T03:56:06;98742.16;;;4.19;91.55
61573;BME280;47465;43.094;12.434;2023-02-28T03:58:39;98719.34;;;4.11;91.67
61573;BME280;47465;43.094;12.434;2023-02-28T04:01:09;98753.53;;;4.31;91.31
61573;BME280;47465;43.094;12.434;2023-02-28T04:03:37;98739.53;;;4.22;91.65
61573;BME280;47465;43.094;12.434;2023-02-28T04:06:05;98720.25;;;4.12;92.17
61573;BME280;47465;43.094;12.434;2023-02-28T04:08:33;98717.63;;;4.12;91.62
61573;BME280;47465;43.094;12.434;2023-02-28T04:11:04;98745.66;;;4.19;92.27
61573;BME280;47465;43.094;12.434;2023-02-28T04:13:32;98729.03;;;4.05;92.17
61573;BME280;47465;43.094;12.434;2023-02-28T04:15:58;98750.06;;;4.17;92.47
61573;BME280;47465;43.094;12.434;2023-02-28T04:18:24;98755.31;;;4.23;92.39
61573;BME280;47465;43.094;12.434;2023-02-28T04:20:49;98748.31;;;4.13;93.08
61573;BME280;47465;43.094;12.434;2023-02-28T04:23:15;98742.16;;;4.09;92.96
61573;BME280;47465;43.094;12.434;2023-02-28T04:25:42;98747.44;;;4.11;93.01
61573;BME280;47465;43.094;12.434;2023-02-28T04:28:09;98746.53;;;4.14;93.56
61573;BME280;47465;43.094;12.434;2023-02-28T04:30:35;98729.00;;;4.03;93.05
61573;BME280;47465;43.094;12.434;2023-02-28T04:33:01;98749.19;;;4.07;93.76
61573;BME280;47465;43.094;12.434;2023-02-28T04:35:27;98751.84;;;4.01;94.03
61573;BME280;47465;43.094;12.434;2023-02-28T04:37:53;98743.06;;;4.02;93.47
61573;BME280;47465;43.094;12.434;2023-02-28T04:40:19;98758.84;;;4.04;93.67
61573;BME280;47465;43.094;12.434;2023-02-28T04:42:46;98750.06;;;4.06;93.08
61573;BME280;47465;43.094;12.434;2023-02-28T04:45:12;98756.19;;;4.19;93.04
61573;BME280;47465;43.094;12.434;2023-02-28T04:47:38;98760.59;;;4.16;93.10
61573;BME280;47465;43.094;12.434;2023-02-28T04:50:04;98767.63;;;4.12;93.44
61573;BME280;47465;43.094;12.434;2023-02-28T04:52:30;98732.53;;;3.96;93.63
61573;BME280;47465;43.094;12.434;2023-02-28T04:54:56;98772.88;;;4.20;93.47
61573;BME280;47465;43.094;12.434;2023-02-28T04:57:22;98771.97;;;4.16;93.60
61573;BME280;47465;43.094;12.434;2023-02-28T04:59:49;98762.34;;;4.17;93.06
61573;BME280;47465;43.094;12.434;2023-02-28T05:02:15;98735.16;;;4.01;93.77
61573;BME280;47465;43.094;12.434;2023-02-28T05:04:41;98765.88;;;4.13;94.15
61573;BME280;47465;43.094;12.434;2023-02-28T05:07:07;98771.13;;;4.23;93.91
61573;BME280;47465;43.094;12.434;2023-02-28T05:09:33;98743.06;;;4.04;93.63
61573;BME280;47465;43.094;12.434;2023-02-28T05:11:59;98762.38;;;4.12;93.67
61573;BME280;47465;43.094;12.434;2023-02-28T05:14:24;98758.84;;;4.10;93.72
61573;BME280;47465;43.094;12.434;2023-02-28T05:16:52;98772.00;;;4.10;94.01
61573;BME280;47465;43.094;12.434;2023-02-28T05:19:18;98771.13;;;4.06;94.39
61573;BME280;47465;43.094;12.434;2023-02-28T05:21:50;98782.50;;;4.11;94.35
61573;BME280;47465;43.094;12.434;2023-02-28T05:24:16;98781.66;;;4.13;94.30
61573;BME280;47465;43.094;12.434;2023-02-28T05:26:49;98767.59;;;4.07;94.76
61573;BME280;47465;43.094;12.434;2023-02-28T05:29:16;98781.66;;;4.11;94.58
61573;BME280;47465;43.094;12.434;2023-02-28T05:31:41;98781.63;;;4.17;94.22
61573;BME280;47465;43.094;12.434;2023-02-28T05:34:09;98771.13;;;4.11;94.53
61573;BME280;47465;43.094;12.434;2023-02-28T05:36:38;98774.63;;;4.15;94.52
61573;BME280;47465;43.094;12.434;2023-02-28T05:39:05;98770.25;;;4.21;93.86
61573;BME280;47465;43.094;12.434;2023-02-28T05:41:31;98777.25;;;4.25;93.93
61573;BME280;47465;43.094;12.434;2023-02-28T05:43:57;98791.28;;;4.27;94.06
61573;BME280;47465;43.094;12.434;2023-02-28T05:46:23;98792.16;;;4.28;94.52
61573;BME280;47465;43.094;12.434;2023-02-28T05:48:50;98779.88;;;4.18;94.56
61573;BME280;47465;43.094;12.434;2023-02-28T05:51:17;98786.00;;;4.18;95.25
61573;BME280;47465;43.094;12.434;2023-02-28T05:53:43;98789.53;;;4.17;95.09
61573;BME280;47465;43.094;12.434;2023-02-28T05:56:09;98798.31;;;4.25;95.23
61573;BME280;47465;43.094;12.434;2023-02-28T05:58:35;98791.28;;;4.20;95.47
61573;BME280;47465;43.094;12.434;2023-02-28T06:01:20;98812.31;;;4.37;95.16
61573;BME280;47465;43.094;12.434;2023-02-28T06:03:46;98807.94;;;4.34;95.72
61573;BME280;47465;43.094;12.434;2023-02-28T06:06:12;98814.09;;;4.36;96.20
61573;BME280;47465;43.094;12.434;2023-02-28T06:08:39;98782.53;;;4.19;96.32
61573;BME280;47465;43.094;12.434;2023-02-28T06:11:05;98802.69;;;4.29;96.35
61573;BME280;47465;43.094;12.434;2023-02-28T06:13:32;98805.31;;;4.29;96.54
61573;BME280;47465;43.094;12.434;2023-02-28T06:16:00;98804.44;;;4.29;96.48
61573;BME280;47465;43.094;12.434;2023-02-28T06:18:26;98807.03;;;4.33;96.64
61573;BME280;47465;43.094;12.434;2023-02-28T06:20:53;98785.16;;;4.21;97.04
61573;BME280;47465;43.094;12.434;2023-02-28T06:23:20;98795.66;;;4.24;97.21
61573;BME280;47465;43.094;12.434;2023-02-28T06:25:47;98798.28;;;4.31;98.06
61573;BME280;47465;43.094;12.434;2023-02-28T06:28:13;98793.88;;;4.35;98.06
61573;BME280;47465;43.094;12.434;2023-02-28T06:30:39;98823.72;;;4.54;98.16
61573;BME280;47465;43.094;12.434;2023-02-28T06:33:05;98800.03;;;4.42;97.34
61573;BME280;47465;43.094;12.434;2023-02-28T06:35:31;98814.03;;;4.61;97.59
61573;BME280;47465;43.094;12.434;2023-02-28T06:37:57;98819.31;;;4.62;97.98
61573;BME280;47465;43.094;12.434;2023-02-28T06:40:23;98809.63;;;4.55;98.12
61573;BME280;47465;43.094;12.434;2023-02-28T06:42:50;98816.63;;;4.74;98.34
61573;BME280;47465;43.094;12.434;2023-02-28T06:45:16;98787.69;;;4.53;98.69
61573;BME280;47465;43.094;12.434;2023-02-28T06:47:42;98810.50;;;4.77;98.40
61573;BME280;47465;43.094;12.434;2023-02-28T06:50:10;98820.97;;;4.88;98.26
61573;BME280;47465;43.094;12.434;2023-02-28T06:52:36;98804.25;;;4.92;96.95
61573;BME280;47465;43.094;12.434;2023-02-28T06:55:03;98799.91;;;4.86;97.02
61573;BME280;47465;43.094;12.434;2023-02-28T06:57:33;98790.25;;;4.88;96.48
61573;BME280;47465;43.094;12.434;2023-02-28T07:00:04;98820.94;;;5.00;96.01
61573;BME280;47465;43.094;12.434;2023-02-28T07:02:31;98811.28;;;4.98;96.19
61573;BME280;47465;43.094;12.434;2023-02-28T07:04:57;98818.28;;;5.02;95.55
61573;BME280;47465;43.094;12.434;2023-02-28T07:07:23;98824.38;;;5.11;95.91
61573;BME280;47465;43.094;12.434;2023-02-28T07:09:48;98822.66;;;5.07;95.71
61573;BME280;47465;43.094;12.434;2023-02-28T07:12:14;98830.53;;;5.13;95.61
61573;BME280;47465;43.094;12.434;2023-02-28T07:14:40;98826.09;;;5.22;94.81
61573;BME280;47465;43.094;12.434;2023-02-28T07:17:08;98811.19;;;5.19;94.61
61573;BME280;47465;43.094;12.434;2023-02-28T07:19:36;98839.22;;;5.40;94.08
61573;BME280;47465;43.094;12.434;2023-02-28T07:22:02;98828.69;;;5.34;93.85
61573;BME280;47465;43.094;12.434;2023-02-28T07:24:28;98847.09;;;5.42;93.77
61573;BME280;47465;43.094;12.434;2023-02-28T07:26:54;98815.47;;;5.37;93.64
61573;BME280;47465;43.094;12.434;2023-02-28T07:29:20;98816.31;;;5.44;93.49
61573;BME280;47465;43.094;12.434;2023-02-28T07:31:46;98835.59;;;5.60;93.24
61573;BME280;47465;43.094;12.434;2023-02-28T07:34:14;98837.38;;;5.58;93.17
61573;BME280;47465;43.094;12.434;2023-02-28T07:36:39;98813.66;;;5.51;93.26
61573;BME280;47465;43.094;12.434;2023-02-28T07:39:05;98810.03;;;5.66;92.69
61573;BME280;47465;43.094;12.434;2023-02-28T07:41:31;98797.78;;;5.56;93.06
61573;BME280;47465;43.094;12.434;2023-02-28T07:43:59;98834.59;;;5.78;92.81
61573;BME280;47465;43.094;12.434;2023-02-28T07:46:25;98808.28;;;5.65;92.54
61573;BME280;47465;43.094;12.434;2023-02-28T07:48:51;98816.03;;;5.85;92.61
61573;BME280;47465;43.094;12.434;2023-02-28T07:51:21;98820.38;;;6.03;91.60
61573;BME280;47465;43.094;12.434;2023-02-28T07:53:48;98813.28;;;6.10;91.53
61573;BME280;47465;43.094;12.434;2023-02-28T07:56:13;98800.13;;;6.01;90.94
61573;BME280;47465;43.094;12.434;2023-02-28T07:58:39;98788.66;;;6.05;91.39
61573;BME280;47465;43.094;12.434;2023-02-28T08:01:06;98800.94;;;6.12;90.73
61573;BME280;47465;43.094;12.434;2023-02-28T08:03:32;98834.13;;;6.41;90.07
61573;BME280;47465;43.094;12.434;2023-02-28T08:05:58;98810.44;;;6.31;89.99
61573;BME280;47465;43.094;12.434;2023-02-28T08:08:26;98803.19;;;6.53;88.61
61573;BME280;47465;43.094;12.434;2023-02-28T08:10:58;98812.66;;;6.74;87.88
61573;BME280;47465;43.094;12.434;2023-02-28T08:13:24;98809.91;;;6.82;87.57
61573;BME280;47465;43.094;12.434;2023-02-28T08:15:50;98825.44;;;7.11;88.71
61573;BME280;47465;43.094;12.434;2023-02-28T08:18:16;98806.72;;;7.27;84.96
61573;BME280;47465;43.094;12.434;2023-02-28T08:20:41;98813.53;;;7.43;84.94
61573;BME280;47465;43.094;12.434;2023-02-28T08:23:07;98817.91;;;7.47;84.56
61573;BME280;47465;43.094;12.434;2023-02-28T08:25:35;98796.88;;;7.38;84.71
61573;BME280;47465;43.094;12.434;2023-02-28T08:28:00;98826.41;;;7.69;83.02
61573;BME280;47465;43.094;12.434;2023-02-28T08:33:27;98821.88;;;7.77;82.11
61573;BME280;47465;43.094;12.434;2023-02-28T08:35:53;98802.94;;;7.45;83.86
61573;BME280;47465;43.094;12.434;2023-02-28T08:38:19;98789.88;;;7.32;81.46
61573;BME280;47465;43.094;12.434;2023-02-28T08:40:47;98789.78;;;7.40;82.16
61573;BME280;47465;43.094;12.434;2023-02-28T08:43:13;98798.59;;;7.40;82.72
61573;BME280;47465;43.094;12.434;2023-02-28T08:45:39;98801.38;;;7.30;83.83
61573;BME280;47465;43.094;12.434;2023-02-28T08:48:05;98803.22;;;7.25;83.90
61573;BME280;47465;43.094;12.434;2023-02-28T08:50:30;98801.38;;;7.31;83.94
61573;BME280;47465;43.094;12.434;2023-02-28T08:52:56;98826.06;;;7.32;82.99
61573;BME280;47465;43.094;12.434;2023-02-28T08:55:22;98810.75;;;7.54;82.91
61573;BME280;47465;43.094;12.434;2023-02-28T08:57:49;98815.94;;;7.61;82.18
61573;BME280;47465;43.094;12.434;2023-02-28T09:00:16;98788.81;;;7.47;81.25
61573;BME280;47465;43.094;12.434;2023-02-28T09:02:42;98796.75;;;7.46;82.69
61573;BME280;47465;43.094;12.434;2023-02-28T09:05:09;98795.91;;;7.44;81.97
61573;BME280;47465;43.094;12.434;2023-02-28T09:07:35;98815.88;;;7.68;81.87
61573;BME280;47465;43.094;12.434;2023-02-28T09:10:01;98815.41;;;7.97;81.61
61573;BME280;47465;43.094;12.434;2023-02-28T09:12:27;98797.09;;;7.83;81.38
61573;BME280;47465;43.094;12.434;2023-02-28T09:14:58;98793.78;;;8.23;80.14
61573;BME280;47465;43.094;12.434;2023-02-28T09:17:24;98801.88;;;8.65;78.85
61573;BME280;47465;43.094;12.434;2023-02-28T09:19:50;98787.47;;;8.80;75.85
61573;BME280;47465;43.094;12.434;2023-02-28T09:22:16;98814.81;;;8.83;75.21
61573;BME280;47465;43.094;12.434;2023-02-28T09:24:42;98802.41;;;8.86;75.27
61573;BME280;47465;43.094;12.434;2023-02-28T09:27:10;98787.34;;;8.86;75.23
61573;BME280;47465;43.094;12.434;2023-02-28T09:29:35;98785.44;;;8.94;74.44
61573;BME280;47465;43.094;12.434;2023-02-28T09:32:05;98762.44;;;8.93;72.78
61573;BME280;47465;43.094;12.434;2023-02-28T09:34:31;98774.38;;;8.72;74.90
61573;BME280;47465;43.094;12.434;2023-02-28T09:36:57;98794.41;;;8.87;75.42
61573;BME280;47465;43.094;12.434;2023-02-28T09:39:23;98793.22;;;9.02;73.99
61573;BME280;47465;43.094;12.434;2023-02-28T09:41:51;98800.25;;;9.04;73.69
61573;BME280;47465;43.094;12.434;2023-02-28T09:44:24;98810.25;;;9.34;72.19
61573;BME280;47465;43.094;12.434;2023-02-28T09:46:56;98793.72;;;9.21;71.80
61573;BME280;47465;43.094;12.434;2023-02-28T09:49:31;98802.16;;;8.98;73.45
61573;BME280;47465;43.094;12.434;2023-02-28T09:52:00;98804.09;;;8.90;73.52
61573;BME280;47465;43.094;12.434;2023-02-28T09:54:30;98789.88;;;8.94;73.29
61573;BME280;47465;43.094;12.434;2023-02-28T09:56:59;98779.28;;;8.92;72.10
61573;BME280;47465;43.094;12.434;2023-02-28T09:59:42;98788.22;;;8.87;74.10
61573;BME280;47465;43.094;12.434;2023-02-28T10:02:21;98804.75;;;9.01;72.80
61573;BME280;47465;43.094;12.434;2023-02-28T10:04:54;98799.22;;;9.12;73.29
61573;BME280;47465;43.094;12.434;2023-02-28T10:07:40;98774.50;;;8.66;72.57
61573;BME280;47465;43.094;12.434;2023-02-28T10:10:20;98789.56;;;8.64;74.23
61573;BME280;47465;43.094;12.434;2023-02-28T10:12:48;98781.38;;;8.75;73.79
61573;BME280;47465;43.094;12.434;2023-02-28T10:15:18;98811.34;;;8.80;73.56
61573;BME280;47465;43.094;12.434;2023-02-28T10:17:51;98798.97;;;8.80;74.44
61573;BME280;47465;43.094;12.434;2023-02-28T10:20:21;98802.00;;;9.05;74.38
61573;BME280;47465;43.094;12.434;2023-02-28T10:22:52;98816.59;;;9.27;72.93
61573;BME280;47465;43.094;12.434;2023-02-28T10:25:22;98821.44;;;9.06;73.22
61573;BME280;47465;43.094;12.434;2023-02-28T10:27:49;98797.78;;;9.37;72.23
61573;BME280;47465;43.094;12.434;2023-02-28T10:30:15;98801.53;;;9.27;70.23
61573;BME280;47465;43.094;12.434;2023-02-28T10:32:47;98815.44;;;9.40;70.29
61573;BME280;47465;43.094;12.434;2023-02-28T10:35:16;98795.06;;;9.40;70.37
61573;BME280;47465;43.094;12.434;2023-02-28T10:37:46;98812.16;;;9.27;69.86
61573;BME280;47465;43.094;12.434;2023-02-28T10:40:27;98803.53;;;9.56;69.97
61573;BME280;47465;43.094;12.434;2023-02-28T10:42:59;98789.72;;;9.42;70.66
61573;BME280;47465;43.094;12.434;2023-02-28T10:45:26;98801.00;;;9.52;69.88
61573;BME280;47465;43.094;12.434;2023-02-28T10:47:55;98799.00;;;9.22;69.15
61573;BME280;47465;43.094;12.434;2023-02-28T10:50:42;98802.41;;;8.86;70.23
61573;BME280;47465;43.094;12.434;2023-02-28T10:53:34;98775.16;;;8.77;70.32
61573;BME280;47465;43.094;12.434;2023-02-28T10:56:02;98777.81;;;8.77;71.58
61573;BME280;47465;43.094;12.434;2023-02-28T10:58:30;98786.59;;;8.79;72.02
61573;BME280;47465;43.094;12.434;2023-02-28T11:00:56;98784.22;;;8.66;72.25
61573;BME280;47465;43.094;12.434;2023-02-28T11:03:25;98772.03;;;8.55;72.33
61573;BME280;47465;43.094;12.434;2023-02-28T11:05:54;98785.94;;;8.68;73.05
61573;BME280;47465;43.094;12.434;2023-02-28T11:08:22;98789.31;;;8.76;71.31
61573;BME280;47465;43.094;12.434;2023-02-28T11:10:54;98781.09;;;8.89;70.95
61573;BME280;47465;43.094;12.434;2023-02-28T11:13:26;98789.53;;;9.09;71.27
61573;BME280;47465;43.094;12.434;2023-02-28T11:15:54;98780.53;;;9.16;69.24
61573;BME280;47465;43.094;12.434;2023-02-28T11:18:27;98785.78;;;9.19;70.88
61573;BME280;47465;43.094;12.434;2023-02-28T11:20:57;98790.44;;;9.50;69.06
61573;BME280;47465;43.094;12.434;2023-02-28T11:23:28;98783.47;;;9.44;67.53
61573;BME280;47465;43.094;12.434;2023-02-28T11:25:58;98778.13;;;9.05;69.29
61573;BME280;47465;43.094;12.434;2023-02-28T11:28:28;98781.00;;;8.95;70.48
61573;BME280;47465;43.094;12.434;2023-02-28T11:31:03;98768.88;;;8.83;69.84
61573;BME280;47465;43.094;12.434;2023-02-28T11:33:31;98779.59;;;9.19;69.72
61573;BME280;47465;43.094;12.434;2023-02-28T11:36:01;98776.09;;;9.17;69.01
61573;BME280;47465;43.094;12.434;2023-02-28T11:38:29;98768.50;;;9.00;70.88
61573;BME280;47465;43.094;12.434;2023-02-28T11:43:59;98758.97;;;9.32;70.05
61573;BME280;47465;43.094;12.434;2023-02-28T11:46:33;98766.63;;;9.05;70.75
61573;BME280;47465;43.094;12.434;2023-02-28T11:49:12;98751.56;;;9.07;71.92
61573;BME280;47465;43.094;12.434;2023-02-28T11:51:47;98732.81;;;8.74;72.75
61573;BME280;47465;43.094;12.434;2023-02-28T11:57:43;98750.53;;;8.22;74.81
61573;BME280;47465;43.094;12.434;2023-02-28T12:00:30;98756.06;;;8.09;76.20
61573;BME280;47465;43.094;12.434;2023-02-28T12:03:04;98756.13;;;8.04;76.67
61573;BME280;47465;43.094;12.434;2023-02-28T12:05:42;98741.44;;;7.86;76.30
61573;BME280;47465;43.094;12.434;2023-02-28T12:08:23;98761.97;;;8.25;75.83
61573;BME280;47465;43.094;12.434;2023-02-28T12:11:01;98738.91;;;8.31;75.51
61573;BME280;47465;43.094;12.434;2023-02-28T12:13:36;98743.91;;;8.48;75.33
61573;BME280;47465;43.094;12.434;2023-02-28T12:16:29;98753.41;;;8.60;74.78
61573;BME280;47465;43.094;12.434;2023-02-28T12:19:07;98733.97;;;8.10;75.47
61573;BME280;47465;43.094;12.434;2023-02-28T12:21:48;98758.00;;;8.00;75.96
61573;BME280;47465;43.094;12.434;2023-02-28T12:24:39;98756.91;;;8.11;76.19
61573;BME280;47465;43.094;12.434;2023-02-28T12:27:10;98739.06;;;8.22;76.08
61573;BME280;47465;43.094;12.434;2023-02-28T12:29:46;98727.56;;;8.23;76.23
61573;BME280;47465;43.094;12.434;2023-02-28T12:32:18;98734.06;;;8.05;78.09
61573;BME280;47465;43.094;12.434;2023-02-28T12:34:48;98747.22;;;8.11;77.37
61573;BME280;47465;43.094;12.434;2023-02-28T12:37:19;98698.59;;;8.14;76.81
61573;BME280;47465;43.094;12.434;2023-02-28T12:39:51;98709.06;;;7.70;77.51
61573;BME280;47465;43.094;12.434;2023-02-28T12:42:27;98729.56;;;8.10;77.22
61573;BME280;47465;43.094;12.434;2023-02-28T12:44:59;98710.47;;;7.91;77.49
61573;BME280;47465;43.094;12.434;2023-02-28T12:47:26;98712.34;;;7.85;77.46
61573;BME280;47465;43.094;12.434;2023-02-28T12:49:57;98710.69;;;7.79;77.64
61573;BME280;47465;43.094;12.434;2023-02-28T12:52:30;98724.34;;;8.04;77.19
61573;BME280;47465;43.094;12.434;2023-02-28T12:55:07;98716.09;;;7.73;77.24
61573;BME280;47465;43.094;12.434;2023-02-28T12:57:40;98718.69;;;8.26;76.20
61573;BME280;47465;43.094;12.434;2023-02-28T13:00:12;98691.31;;;8.27;75.98
61573;BME280;47465;43.094;12.434;2023-02-28T13:03:03;98725.44;;;8.43;75.27
61573;BME280;47465;43.094;12.434;2023-02-28T13:09:08;98710.78;;;8.69;74.73
61573;BME280;47465;43.094;12.434;2023-02-28T13:11:39;98693.09;;;8.25;74.84
61573;BME280;47465;43.094;12.434;2023-02-28T13:14:22;98714.00;;;8.40;76.07
61573;BME280;47465;43.094;12.434;2023-02-28T13:16:58;98710.44;;;8.44;76.00
61573;BME280;47465;43.094;12.434;2023-02-28T13:19:26;98679.19;;;8.60;76.14
61573;BME280;47465;43.094;12.434;2023-02-28T13:21:53;98696.53;;;8.28;76.73
61573;BME280;47465;43.094;12.434;2023-02-28T13:24:47;98709.75;;;8.31;77.06
61573;BME280;47465;43.094;12.434;2023-02-28T13:27:32;98707.00;;;8.36;77.51